createdAt,value
2018-10-18T00:00:19.140Z,12.10
2018-10-18T00:02:47.373Z,12.00
2018-10-18T00:05:15.562Z,12.00
2018-10-18T00:07:43.757Z,12.00
2018-10-18T00:10:11.937Z,12.00
2018-10-18T00:12:40.139Z,12.00
2018-10-18T00:15:08.632Z,12.00
2018-10-18T00:17:42.226Z,12.00
2018-10-18T00:20:10.456Z,11.90
2018-10-18T00:22:38.640Z,11.90
2018-10-18T00:25:06.909Z,11.90
2018-10-18T00:27:35.105Z,11.90
2018-10-18T00:30:03.395Z,11.90
2018-10-18T00:32:31.759Z,11.90
2018-10-18T00:34:59.918Z,11.80
2018-10-18T00:37:28.102Z,11.80
2018-10-18T00:39:56.613Z,11.80
2018-10-18T00:42:24.844Z,11.80
2018-10-18T00:44:53.015Z,11.90
2018-10-18T00:47:21.213Z,11.90
2018-10-18T00:49:49.389Z,11.90
2018-10-18T00:52:17.587Z,11.90
2018-10-18T00:54:45.765Z,12.00
2018-10-18T00:57:14.157Z,12.00
2018-10-18T00:59:42.317Z,12.00
2018-10-18T01:02:10.566Z,12.00
2018-10-18T01:04:38.674Z,12.10
2018-10-18T01:07:07.493Z,12.10
2018-10-18T01:09:35.662Z,12.20
2018-10-18T01:12:03.947Z,12.20
2018-10-18T01:14:32.195Z,12.20
2018-10-18T01:17:03.451Z,12.30
2018-10-18T01:19:33.633Z,12.30
2018-10-18T01:22:02.344Z,12.30
2018-10-18T01:24:30.568Z,12.40
2018-10-18T01:26:58.761Z,12.40
2018-10-18T01:29:27.525Z,12.40
2018-10-18T01:31:55.794Z,12.50
2018-10-18T01:34:23.977Z,12.50
2018-10-18T01:36:52.155Z,12.50
2018-10-18T01:39:20.341Z,12.50
2018-10-18T01:41:49.104Z,12.50
2018-10-18T01:44:17.341Z,12.50
2018-10-18T01:46:45.452Z,12.50
2018-10-18T01:49:13.712Z,12.50
2018-10-18T01:51:41.889Z,12.50
2018-10-18T01:54:10.128Z,12.50
2018-10-18T01:56:38.262Z,12.50
2018-10-18T01:59:07.053Z,12.50
2018-10-18T02:01:35.252Z,12.50
2018-10-18T02:04:03.409Z,12.50
2018-10-18T02:06:31.605Z,12.50
2018-10-18T02:08:59.803Z,12.50
2018-10-18T02:11:27.973Z,12.50
2018-10-18T02:13:56.193Z,12.50
2018-10-18T02:16:24.377Z,12.50
2018-10-18T02:18:52.580Z,12.50
2018-10-18T02:21:20.770Z,12.50
2018-10-18T02:23:48.964Z,12.50
2018-10-18T02:26:17.153Z,12.50
2018-10-18T02:28:45.344Z,12.50
2018-10-18T02:31:13.516Z,12.50
2018-10-18T02:33:41.740Z,12.50
2018-10-18T02:36:09.950Z,12.50
2018-10-18T02:38:38.529Z,12.50
2018-10-18T02:41:06.710Z,12.50
2018-10-18T02:43:34.896Z,12.50
2018-10-18T02:46:03.125Z,12.50
2018-10-18T02:48:31.317Z,12.50
2018-10-18T02:50:59.500Z,12.50
2018-10-18T02:53:27.697Z,12.50
2018-10-18T02:55:55.873Z,12.50
2018-10-18T02:58:24.064Z,12.50
2018-10-18T03:00:52.240Z,12.50
2018-10-18T03:03:20.428Z,12.50
2018-10-18T03:05:48.585Z,12.50
2018-10-18T03:08:16.768Z,12.50
2018-10-18T03:10:44.941Z,12.50
2018-10-18T03:13:13.096Z,12.50
2018-10-18T03:15:41.400Z,12.50
2018-10-18T03:18:09.758Z,12.50
2018-10-18T03:20:37.864Z,12.60
2018-10-18T03:23:06.380Z,12.60
2018-10-18T03:25:34.601Z,12.60
2018-10-18T03:28:02.851Z,12.60
2018-10-18T03:30:31.060Z,12.60
2018-10-18T03:32:59.308Z,12.60
2018-10-18T03:35:27.500Z,12.70
2018-10-18T03:37:55.760Z,12.70
2018-10-18T03:40:24.063Z,12.70
2018-10-18T03:42:52.680Z,12.70
2018-10-18T03:45:22.139Z,12.70
2018-10-18T03:47:50.662Z,12.80
2018-10-18T03:50:18.897Z,12.80
2018-10-18T03:52:47.144Z,12.80
2018-10-18T03:55:15.345Z,12.80
2018-10-18T03:57:43.669Z,12.90
2018-10-18T04:00:11.970Z,12.90
2018-10-18T04:02:40.152Z,12.90
2018-10-18T04:05:09.345Z,12.90
2018-10-18T04:07:37.552Z,12.90
2018-10-18T04:10:06.225Z,12.90
2018-10-18T04:12:34.521Z,12.90
2018-10-18T04:15:02.821Z,12.90
2018-10-18T04:17:31.048Z,12.90
2018-10-18T04:19:59.325Z,12.90
2018-10-18T04:22:27.617Z,12.90
2018-10-18T04:24:55.900Z,12.90
2018-10-18T04:27:24.146Z,12.90
2018-10-18T04:29:52.618Z,12.90
2018-10-18T04:32:20.803Z,12.90
2018-10-18T04:34:49.104Z,12.90
2018-10-18T04:37:17.403Z,12.90
2018-10-18T04:39:45.680Z,12.90
2018-10-18T04:42:13.990Z,12.90
2018-10-18T04:44:42.200Z,12.90
2018-10-18T04:47:10.469Z,13.00
2018-10-18T04:49:38.742Z,13.00
2018-10-18T04:53:09.972Z,13.00
2018-10-18T04:55:38.289Z,13.00
2018-10-18T04:58:08.055Z,13.00
2018-10-18T05:00:36.257Z,13.00
2018-10-18T05:03:04.525Z,13.00
2018-10-18T05:05:44.107Z,13.10
2018-10-18T05:08:12.344Z,13.10
2018-10-18T05:10:40.645Z,13.10
2018-10-18T05:13:08.904Z,13.10
2018-10-18T05:15:37.400Z,13.10
2018-10-18T05:18:06.342Z,13.10
2018-10-18T05:20:34.929Z,13.10
2018-10-18T05:23:03.144Z,13.20
2018-10-18T05:25:32.161Z,13.20
2018-10-18T05:28:00.420Z,13.20
2018-10-18T05:30:28.664Z,13.20
2018-10-18T05:32:56.975Z,13.20
2018-10-18T05:35:25.227Z,13.20
2018-10-18T05:37:53.636Z,13.20
2018-10-18T05:40:21.764Z,13.20
2018-10-18T05:42:50.143Z,13.20
2018-10-18T05:45:18.465Z,13.20
2018-10-18T05:47:46.858Z,13.20
2018-10-18T05:50:15.102Z,13.20
2018-10-18T05:52:43.327Z,13.20
2018-10-18T05:55:12.329Z,13.20
2018-10-18T05:57:41.223Z,13.20
2018-10-18T06:00:12.655Z,13.20
2018-10-18T06:02:41.132Z,13.20
2018-10-18T06:05:09.977Z,13.30
2018-10-18T06:07:38.207Z,13.30
2018-10-18T06:10:16.668Z,13.30
2018-10-18T06:12:44.752Z,13.30
2018-10-18T06:15:12.952Z,13.30
2018-10-18T06:17:41.608Z,13.30
2018-10-18T06:20:09.808Z,13.30
2018-10-18T06:22:38.119Z,13.30
2018-10-18T06:25:07.084Z,13.30
2018-10-18T06:27:35.489Z,13.30
2018-10-18T06:30:03.705Z,13.30
2018-10-18T06:32:31.873Z,13.30
2018-10-18T06:35:00.141Z,13.30
2018-10-18T06:37:28.373Z,13.40
2018-10-18T06:39:56.460Z,13.40
2018-10-18T06:42:24.852Z,13.30
2018-10-18T06:44:53.049Z,13.40
2018-10-18T06:47:21.281Z,13.40
2018-10-18T06:49:49.436Z,13.40
2018-10-18T06:52:17.631Z,13.40
2018-10-18T06:54:46.073Z,13.40
2018-10-18T06:57:14.245Z,13.40
2018-10-18T06:59:44.845Z,13.40
2018-10-18T07:02:12.949Z,13.40
2018-10-18T07:04:41.188Z,13.40
2018-10-18T07:07:09.370Z,13.40
2018-10-18T07:09:37.568Z,13.40
2018-10-18T07:12:06.253Z,13.40
2018-10-18T07:14:34.361Z,13.40
2018-10-18T07:17:02.549Z,13.40
2018-10-18T07:19:30.765Z,13.40
2018-10-18T07:21:58.954Z,13.40
2018-10-18T07:24:27.156Z,13.40
2018-10-18T07:26:55.346Z,13.40
2018-10-18T07:29:23.721Z,13.50
2018-10-18T07:31:52.142Z,13.50
2018-10-18T07:34:20.347Z,13.50
2018-10-18T07:36:48.544Z,13.50
2018-10-18T07:39:16.768Z,13.50
2018-10-18T07:41:44.965Z,13.50
2018-10-18T07:44:13.254Z,13.50
2018-10-18T07:46:41.471Z,13.50
2018-10-18T07:49:09.807Z,13.50
2018-10-18T07:51:38.005Z,13.60
2018-10-18T07:54:06.283Z,13.60
2018-10-18T07:56:34.508Z,13.60
2018-10-18T07:59:02.723Z,13.60
2018-10-18T08:01:31.077Z,13.60
2018-10-18T08:03:59.270Z,13.60
2018-10-18T08:06:27.573Z,13.60
2018-10-18T08:08:55.824Z,13.60
2018-10-18T08:11:24.032Z,13.70
2018-10-18T08:13:52.554Z,13.60
2018-10-18T08:16:20.752Z,13.70
2018-10-18T08:18:48.921Z,13.70
2018-10-18T08:21:17.118Z,13.70
2018-10-18T08:23:45.309Z,13.70
2018-10-18T08:26:13.541Z,13.80
2018-10-18T08:28:41.755Z,13.70
2018-10-18T08:31:10.082Z,13.70
2018-10-18T08:33:38.169Z,13.70
2018-10-18T08:36:06.384Z,13.80
2018-10-18T08:38:34.582Z,13.80
2018-10-18T08:41:02.801Z,13.80
2018-10-18T08:43:30.984Z,13.80
2018-10-18T08:45:59.206Z,13.80
2018-10-18T08:48:27.396Z,13.80
2018-10-18T08:50:55.602Z,13.80
2018-10-18T08:53:23.786Z,13.80
2018-10-18T08:55:52.191Z,13.80
2018-10-18T08:58:20.375Z,13.80
2018-10-18T09:00:48.588Z,13.80
2018-10-18T09:03:16.880Z,13.80
2018-10-18T09:05:45.076Z,13.80
2018-10-18T09:08:13.256Z,13.80
2018-10-18T09:10:41.484Z,13.80
2018-10-18T09:13:09.678Z,13.70
2018-10-18T09:15:37.860Z,13.70
2018-10-18T09:18:06.079Z,13.70
2018-10-18T09:20:34.269Z,13.70
2018-10-18T09:23:02.479Z,13.70
2018-10-18T09:25:30.687Z,13.70
2018-10-18T09:27:58.889Z,13.60
2018-10-18T09:30:27.145Z,13.60
2018-10-18T09:32:55.393Z,13.60
2018-10-18T09:35:23.570Z,13.60
2018-10-18T09:37:51.813Z,13.60
2018-10-18T09:40:20.001Z,13.60
2018-10-18T09:42:48.201Z,13.50
2018-10-18T09:45:16.396Z,13.50
2018-10-18T09:47:44.597Z,13.50
2018-10-18T09:50:13.121Z,13.50
2018-10-18T09:52:41.343Z,13.50
2018-10-18T09:55:11.204Z,13.50
2018-10-18T09:57:39.508Z,13.50
2018-10-18T10:00:12.208Z,13.50
2018-10-18T10:02:45.909Z,13.50
2018-10-18T10:05:14.138Z,13.50
2018-10-18T10:07:42.332Z,13.50
2018-10-18T10:10:10.533Z,13.50
2018-10-18T10:12:38.817Z,13.50
2018-10-18T10:17:46.384Z,13.50
2018-10-18T10:20:14.492Z,13.50
2018-10-18T10:22:42.837Z,13.50
2018-10-18T10:25:11.098Z,13.50
2018-10-18T10:27:39.224Z,13.60
2018-10-18T10:30:07.876Z,13.60
2018-10-18T10:32:36.067Z,13.60
2018-10-18T10:35:05.148Z,13.60
2018-10-18T10:37:35.543Z,13.60
2018-10-18T10:40:03.816Z,13.60
2018-10-18T10:42:31.952Z,13.70
2018-10-18T10:45:00.811Z,13.70
2018-10-18T10:47:28.958Z,13.70
2018-10-18T10:49:57.190Z,13.70
2018-10-18T10:52:25.371Z,13.80
2018-10-18T10:54:53.548Z,13.80
2018-10-18T10:57:21.753Z,13.80
2018-10-18T10:59:49.938Z,13.80
2018-10-18T11:02:18.162Z,13.80
2018-10-18T11:04:46.342Z,13.80
2018-10-18T11:07:14.557Z,13.90
2018-10-18T11:09:42.798Z,13.90
2018-10-18T11:12:10.962Z,13.90
2018-10-18T11:14:39.116Z,13.90
2018-10-18T11:17:07.326Z,14.00
2018-10-18T11:19:35.568Z,14.00
2018-10-18T11:22:04.088Z,14.00
2018-10-18T11:24:32.329Z,14.10
2018-10-18T11:27:00.518Z,14.10
2018-10-18T11:29:28.665Z,14.20
2018-10-18T11:31:56.850Z,14.30
2018-10-18T11:34:25.103Z,14.30
2018-10-18T11:36:53.455Z,14.30
2018-10-18T11:39:21.655Z,14.30
2018-10-18T11:41:49.840Z,14.40
2018-10-18T11:44:18.143Z,14.50
2018-10-18T11:46:46.249Z,14.50
2018-10-18T11:49:14.456Z,14.60
2018-10-18T11:51:42.687Z,14.70
2018-10-18T11:54:10.933Z,14.70
2018-10-18T11:56:39.012Z,14.70
2018-10-18T11:59:07.253Z,14.70
2018-10-18T12:01:35.438Z,14.70
2018-10-18T12:04:03.632Z,14.70
2018-10-18T12:06:31.800Z,14.60
2018-10-18T12:08:59.997Z,14.60
2018-10-18T12:11:28.217Z,14.60
2018-10-18T12:13:56.454Z,14.50
2018-10-18T12:16:24.639Z,14.50
2018-10-18T12:18:53.078Z,14.50
2018-10-18T12:21:21.282Z,14.60
2018-10-18T12:23:49.521Z,14.70
2018-10-18T12:26:17.984Z,14.80
2018-10-18T12:28:46.129Z,14.90
2018-10-18T12:31:14.303Z,15.00
2018-10-18T12:33:42.498Z,15.10
2018-10-18T12:36:10.672Z,15.10
2018-10-18T12:38:38.869Z,15.20
2018-10-18T12:41:07.212Z,15.20
2018-10-18T12:43:35.245Z,15.30
2018-10-18T12:46:03.437Z,15.40
2018-10-18T12:48:31.682Z,15.30
2018-10-18T12:50:59.866Z,15.50
2018-10-18T12:53:28.054Z,15.70
2018-10-18T12:55:56.355Z,15.70
2018-10-18T12:58:24.472Z,15.80
2018-10-18T13:00:52.680Z,15.90
2018-10-18T13:03:20.879Z,16.10
2018-10-18T13:05:49.081Z,16.20
2018-10-18T13:08:17.346Z,16.30
2018-10-18T13:10:45.456Z,16.30
2018-10-18T13:13:13.625Z,16.30
2018-10-18T13:15:41.833Z,16.20
2018-10-18T13:18:10.289Z,16.30
2018-10-18T13:20:38.389Z,16.30
2018-10-18T13:23:06.607Z,16.50
2018-10-18T13:25:41.516Z,16.60
2018-10-18T13:28:10.913Z,16.80
2018-10-18T13:30:39.133Z,16.90
2018-10-18T13:33:07.301Z,17.00
2018-10-18T13:35:43.876Z,16.90
2018-10-18T13:38:14.519Z,16.90
2018-10-18T13:40:47.711Z,16.70
2018-10-18T13:43:23.546Z,16.60
2018-10-18T13:45:59.230Z,16.50
2018-10-18T13:48:30.707Z,16.40
2018-10-18T13:51:04.164Z,16.40
2018-10-18T13:53:36.176Z,16.40
2018-10-18T13:56:04.403Z,16.40
2018-10-18T13:58:40.285Z,16.50
2018-10-18T14:01:12.374Z,16.50
2018-10-18T14:03:45.992Z,16.50
2018-10-18T14:06:18.259Z,16.60
2018-10-18T14:08:47.536Z,16.50
2018-10-18T14:11:19.700Z,16.50
2018-10-18T14:13:47.882Z,16.50
2018-10-18T14:16:16.184Z,16.40
2018-10-18T14:18:44.380Z,16.40
2018-10-18T14:21:12.628Z,16.40
2018-10-18T14:23:40.827Z,16.40
2018-10-18T14:26:09.038Z,16.50
2018-10-18T14:28:42.566Z,16.50
2018-10-18T14:31:14.464Z,16.50
2018-10-18T14:33:49.589Z,16.50
2018-10-18T14:36:20.010Z,16.50
2018-10-18T14:38:50.642Z,16.50
2018-10-18T14:41:19.972Z,16.40
2018-10-18T14:43:48.114Z,16.30
2018-10-18T14:46:16.270Z,16.20
2018-10-18T14:48:44.460Z,16.20
2018-10-18T14:51:12.665Z,16.10
2018-10-18T14:53:41.297Z,16.00
2018-10-18T14:56:09.559Z,16.00
2018-10-18T14:58:37.688Z,16.00
2018-10-18T15:01:10.429Z,16.00
2018-10-18T15:03:46.027Z,16.00
2018-10-18T15:06:20.294Z,16.10
2018-10-18T15:08:54.739Z,16.10
2018-10-18T15:11:28.176Z,16.00
2018-10-18T15:14:01.740Z,16.10
2018-10-18T15:16:30.017Z,16.10
2018-10-18T15:18:58.274Z,16.10
2018-10-18T15:21:27.097Z,16.10
2018-10-18T15:23:55.282Z,16.10
2018-10-18T15:26:23.567Z,16.10
2018-10-18T15:28:51.680Z,16.00
2018-10-18T15:31:19.912Z,16.00
2018-10-18T15:33:48.085Z,16.00
2018-10-18T15:36:16.282Z,15.90
2018-10-18T15:38:44.640Z,15.90
2018-10-18T15:41:12.727Z,15.80
2018-10-18T15:43:40.832Z,15.80
2018-10-18T15:46:09.032Z,15.80
2018-10-18T15:48:37.200Z,15.80
2018-10-18T15:51:05.434Z,15.80
2018-10-18T15:53:33.596Z,15.70
2018-10-18T15:56:01.802Z,15.70
2018-10-18T15:58:29.980Z,15.60
2018-10-18T16:00:58.170Z,15.50
2018-10-18T16:03:26.654Z,15.50
2018-10-18T16:05:54.812Z,15.40
2018-10-18T16:08:23.001Z,15.40
2018-10-18T16:10:51.473Z,15.30
2018-10-18T16:13:21.552Z,15.30
2018-10-18T16:15:50.218Z,15.20
2018-10-18T16:18:18.461Z,15.20
2018-10-18T16:20:46.985Z,15.10
2018-10-18T16:23:15.954Z,15.10
2018-10-18T16:25:44.514Z,15.00
2018-10-18T16:28:12.696Z,15.00
2018-10-18T16:30:41.341Z,15.00
2018-10-18T16:33:09.830Z,14.90
2018-10-18T16:35:38.241Z,14.90
2018-10-18T16:38:06.480Z,14.90
2018-10-18T16:40:34.652Z,14.80
2018-10-18T16:43:02.844Z,14.80
2018-10-18T16:45:31.022Z,14.80
2018-10-18T16:47:59.533Z,14.70
2018-10-18T16:50:27.698Z,14.70
2018-10-18T16:52:55.917Z,14.70
2018-10-18T16:55:24.098Z,14.60
2018-10-18T16:57:52.324Z,14.60
2018-10-18T17:00:20.577Z,14.60
2018-10-18T17:02:48.653Z,14.50
2018-10-18T17:05:16.824Z,14.50
2018-10-18T17:07:45.033Z,14.40
2018-10-18T17:10:13.257Z,14.40
2018-10-18T17:12:41.392Z,14.30
2018-10-18T17:15:09.560Z,14.30
2018-10-18T17:17:37.827Z,14.20
2018-10-18T17:20:06.570Z,14.20
2018-10-18T17:22:34.747Z,14.10
2018-10-18T17:25:02.936Z,14.00
2018-10-18T17:27:31.246Z,14.00
2018-10-18T17:29:59.377Z,13.90
2018-10-18T17:32:27.576Z,13.90
2018-10-18T17:34:55.802Z,14.00
2018-10-18T17:37:23.993Z,13.80
2018-10-18T17:39:52.173Z,13.70
2018-10-18T17:42:20.399Z,13.70
2018-10-18T17:44:48.525Z,13.70
2018-10-18T17:47:16.747Z,13.60
2018-10-18T17:49:44.920Z,13.60
2018-10-18T17:52:13.124Z,13.50
2018-10-18T17:54:41.305Z,13.50
2018-10-18T17:57:09.477Z,13.50
2018-10-18T17:59:37.718Z,13.40
2018-10-18T18:02:06.096Z,13.40
2018-10-18T18:04:34.255Z,13.30
2018-10-18T18:07:02.512Z,13.30
2018-10-18T18:09:30.618Z,13.30
2018-10-18T18:11:58.793Z,13.20
2018-10-18T18:14:27.200Z,13.20
2018-10-18T18:16:55.367Z,13.20
2018-10-18T18:19:23.561Z,13.20
2018-10-18T18:21:51.750Z,13.20
2018-10-18T18:24:19.943Z,13.20
2018-10-18T18:26:48.122Z,13.10
2018-10-18T18:29:16.332Z,13.10
2018-10-18T18:31:44.525Z,13.10
2018-10-18T18:34:12.721Z,13.10
2018-10-18T18:36:40.933Z,13.10
2018-10-18T18:39:10.244Z,13.10
2018-10-18T18:41:38.361Z,13.10
2018-10-18T18:44:06.590Z,13.10
2018-10-18T18:46:34.765Z,13.10
2018-10-18T18:49:02.996Z,13.10
2018-10-18T18:51:31.280Z,13.10
2018-10-18T18:53:59.569Z,13.10
2018-10-18T18:56:27.744Z,13.10
2018-10-18T18:58:55.941Z,13.10
2018-10-18T19:01:24.107Z,13.10
2018-10-18T19:03:52.301Z,13.10
2018-10-18T19:06:20.470Z,13.10
2018-10-18T19:08:48.689Z,13.10
2018-10-18T19:11:16.868Z,13.10
2018-10-18T19:13:45.691Z,13.10
2018-10-18T19:16:13.862Z,13.10
2018-10-18T19:18:42.057Z,13.10
2018-10-18T19:21:10.247Z,13.00
2018-10-18T19:23:38.428Z,13.00
2018-10-18T19:26:07.528Z,13.00
2018-10-18T19:28:35.757Z,13.00
2018-10-18T19:31:03.945Z,13.00
2018-10-18T19:33:32.129Z,13.00
2018-10-18T19:36:00.337Z,13.00
2018-10-18T19:38:28.554Z,13.10
2018-10-18T19:40:56.719Z,13.00
2018-10-18T19:43:24.904Z,13.10
2018-10-18T19:45:53.350Z,13.00
2018-10-18T19:48:21.545Z,13.10
2018-10-18T19:50:49.928Z,13.10
2018-10-18T19:53:18.104Z,13.00
2018-10-18T19:55:46.314Z,13.10
2018-10-18T19:58:14.584Z,13.00
2018-10-18T20:00:42.726Z,13.10
2018-10-18T20:03:10.914Z,13.00
2018-10-18T20:05:39.121Z,13.00
2018-10-18T20:08:07.329Z,13.00
2018-10-18T20:10:35.503Z,13.00
2018-10-18T20:13:03.785Z,13.00
2018-10-18T20:15:31.909Z,13.00
2018-10-18T20:18:00.143Z,13.00
2018-10-18T20:20:28.296Z,13.00
2018-10-18T20:22:56.477Z,12.90
2018-10-18T20:25:24.824Z,13.00
2018-10-18T20:27:52.944Z,12.90
2018-10-18T20:30:21.148Z,12.90
2018-10-18T20:32:49.360Z,12.90
2018-10-18T20:35:17.611Z,12.90
2018-10-18T20:37:45.817Z,12.90
2018-10-18T20:40:15.073Z,12.90
2018-10-18T20:42:43.376Z,12.90
2018-10-18T20:45:16.902Z,12.90
2018-10-18T20:47:45.368Z,12.90
2018-10-18T20:50:13.989Z,12.90
2018-10-18T20:52:42.453Z,12.90
2018-10-18T20:55:10.722Z,12.90
2018-10-18T20:57:38.900Z,12.90
2018-10-18T21:00:07.866Z,12.90
2018-10-18T21:02:36.248Z,12.90
2018-10-18T21:05:04.540Z,12.90
2018-10-18T21:07:32.716Z,12.90
2018-10-18T21:10:06.292Z,12.90
2018-10-18T21:12:34.484Z,12.90
2018-10-18T21:15:02.702Z,12.90
2018-10-18T21:17:30.881Z,12.90
2018-10-18T21:19:59.107Z,12.80
2018-10-18T21:22:27.314Z,12.80
2018-10-18T21:24:55.576Z,12.80
2018-10-18T21:27:23.794Z,12.80
2018-10-18T21:29:51.969Z,12.80
2018-10-18T21:32:20.169Z,12.80
2018-10-18T21:34:48.389Z,12.90
2018-10-18T21:37:16.580Z,12.80
2018-10-18T21:39:44.743Z,12.80
2018-10-18T21:42:12.936Z,12.90
2018-10-18T21:44:41.251Z,12.80
2018-10-18T21:47:09.698Z,12.80
2018-10-18T21:49:37.879Z,12.80
2018-10-18T21:52:06.090Z,12.80
2018-10-18T21:54:34.275Z,12.80
2018-10-18T21:57:02.509Z,12.80
2018-10-18T21:59:30.657Z,12.80
2018-10-18T22:01:58.858Z,12.80
2018-10-18T22:04:27.033Z,12.70
2018-10-18T22:06:55.229Z,12.70
2018-10-18T22:09:23.412Z,12.70
2018-10-18T22:11:52.055Z,12.70
2018-10-18T22:14:20.296Z,12.70
2018-10-18T22:16:48.449Z,12.70
2018-10-18T22:19:16.640Z,12.60
2018-10-18T22:21:44.834Z,12.60
2018-10-18T22:24:13.008Z,12.60
2018-10-18T22:26:41.224Z,12.60
2018-10-18T22:29:09.493Z,12.50
2018-10-18T22:31:37.916Z,12.50
2018-10-18T22:34:06.160Z,12.50
2018-10-18T22:36:34.357Z,12.50
2018-10-18T22:39:02.622Z,12.40
2018-10-18T22:41:30.785Z,12.40
2018-10-18T22:43:59.544Z,12.40
2018-10-18T22:46:27.749Z,12.40
2018-10-18T22:48:55.953Z,12.40
2018-10-18T22:51:24.169Z,12.40
2018-10-18T22:53:52.365Z,12.40
2018-10-18T22:56:20.569Z,12.40
2018-10-18T22:58:48.744Z,12.40
2018-10-18T23:01:16.948Z,12.40
2018-10-18T23:03:45.121Z,12.40
2018-10-18T23:06:13.293Z,12.40
2018-10-18T23:08:41.490Z,12.40
2018-10-18T23:11:10.010Z,12.40
2018-10-18T23:13:38.129Z,12.40
2018-10-18T23:16:06.776Z,12.40
2018-10-18T23:18:34.977Z,12.40
2018-10-18T23:21:03.304Z,12.40
2018-10-18T23:23:31.449Z,12.40
2018-10-18T23:25:59.620Z,12.40
2018-10-18T23:28:27.818Z,12.40
2018-10-18T23:30:56.000Z,12.40
2018-10-18T23:33:24.200Z,12.40
2018-10-18T23:35:52.601Z,12.40
2018-10-18T23:38:20.820Z,12.40
2018-10-18T23:40:49.172Z,12.40
2018-10-18T23:43:17.375Z,12.40
2018-10-18T23:45:45.557Z,12.40
2018-10-18T23:48:13.760Z,12.40
2018-10-18T23:50:41.940Z,12.40
2018-10-18T23:53:10.195Z,12.40
2018-10-18T23:55:38.339Z,12.30
2018-10-18T23:58:06.593Z,12.30
